Time;durP1;ratioP1;P1;durP2;ratioP2;P2;SDS_P1;SDS_P2;PMS_P1;PMS_P2;Temp;Humidity;BMP_temperature;BMP_pressure;BME280_temperature;BME280_humidity;BME280_pressure;Samples;Min_cycle;Max_cycle;Signal;HPM_P1;HPM_P2
2023/07/31 00:02:23;;;;;;;3.97;1.90;;;19.20;87.80;;;;;;5034630;28;20434;-81
2023/07/31 00:04:49;;;;;;;5.47;2.20;;;19.20;87.90;;;;;;5033506;28;20026;-80
2023/07/31 00:07:15;;;;;;;4.85;2.00;;;19.20;87.90;;;;;;5028377;28;20402;-80
2023/07/31 00:09:40;;;;;;;3.85;1.83;;;19.20;87.90;;;;;;5035850;28;20032;-79
2023/07/31 00:12:06;;;;;;;2.38;1.55;;;19.20;88.00;;;;;;5035643;28;20075;-80
2023/07/31 00:14:31;;;;;;;3.63;1.73;;;19.20;88.00;;;;;;5033384;28;20056;-79
2023/07/31 00:16:57;;;;;;;3.85;1.90;;;19.20;88.00;;;;;;5017099;28;20078;-81
2023/07/31 00:19:22;;;;;;;4.95;1.90;;;19.20;88.10;;;;;;5017114;28;20399;-80
2023/07/31 00:21:48;;;;;;;3.55;1.60;;;19.20;88.10;;;;;;5017950;28;20034;-80
2023/07/31 00:24:13;;;;;;;3.22;1.65;;;19.20;88.10;;;;;;5017148;28;20021;-81
2023/07/31 00:26:39;;;;;;;3.65;1.70;;;19.30;88.20;;;;;;5014396;28;20057;-80
2023/07/31 00:29:04;;;;;;;3.13;1.60;;;19.20;88.20;;;;;;5035135;28;20026;-80
2023/07/31 00:31:30;;;;;;;3.13;1.67;;;19.20;88.20;;;;;;5017063;28;20044;-80
2023/07/31 00:33:55;;;;;;;3.28;1.60;;;19.20;88.30;;;;;;5034304;28;20028;-80
2023/07/31 00:36:21;;;;;;;3.33;1.70;;;19.20;88.30;;;;;;5013113;28;20026;-80
2023/07/31 00:38:46;;;;;;;4.20;1.80;;;19.20;88.40;;;;;;5013331;28;20489;-81
2023/07/31 00:41:12;;;;;;;3.78;1.58;;;19.20;88.30;;;;;;5034156;28;20022;-80
2023/07/31 00:43:37;;;;;;;6.80;1.85;;;19.20;88.30;;;;;;5033067;28;20017;-80
2023/07/31 00:46:03;;;;;;;4.00;1.80;;;19.20;88.50;;;;;;5036321;28;20432;-82
2023/07/31 00:48:29;;;;;;;3.65;1.83;;;19.30;88.50;;;;;;5040792;28;20036;-86
2023/07/31 00:50:54;;;;;;;2.88;1.40;;;19.30;88.50;;;;;;5032845;28;20463;-81
2023/07/31 00:53:20;;;;;;;3.47;1.63;;;19.30;88.50;;;;;;5031219;28;20466;-82
2023/07/31 00:55:46;;;;;;;3.60;1.73;;;19.30;88.50;;;;;;5030872;28;20026;-82
2023/07/31 00:58:11;;;;;;;2.55;1.58;;;19.30;88.50;;;;;;5037659;28;20077;-82
2023/07/31 01:00:37;;;;;;;3.45;1.92;;;19.30;88.50;;;;;;5043429;28;20072;-81
2023/07/31 01:03:03;;;;;;;2.95;1.60;;;19.30;88.50;;;;;;5047106;28;20402;-82
2023/07/31 01:06:07;;;;;;;3.28;1.85;;;19.30;88.50;;;;;;5034011;28;20029;-81
2023/07/31 01:08:44;;;;;;;3.72;2.10;;;19.30;88.50;;;;;;5045903;28;20025;-82
2023/07/31 01:11:19;;;;;;;3.10;1.80;;;19.30;88.70;;;;;;5013261;28;20030;-82
2023/07/31 01:13:45;;;;;;;4.28;1.83;;;19.30;88.60;;;;;;5040808;28;20029;-80
2023/07/31 01:16:11;;;;;;;2.70;1.65;;;19.20;88.50;;;;;;5044250;28;20026;-82
2023/07/31 01:18:37;;;;;;;4.85;2.00;;;19.20;88.60;;;;;;5039331;28;20051;-83
2023/07/31 01:21:28;;;;;;;4.05;2.08;;;19.20;88.70;;;;;;5030681;28;20025;-82
2023/07/31 01:24:09;;;;;;;2.50;1.60;;;19.20;88.90;;;;;;5033456;28;20433;-83
2023/07/31 01:26:38;;;;;;;4.20;1.90;;;19.20;88.80;;;;;;5029779;28;20034;-81
2023/07/31 01:29:16;;;;;;;3.13;1.80;;;19.20;88.90;;;;;;5026740;28;20040;-81
2023/07/31 01:31:45;;;;;;;3.35;1.98;;;19.20;88.90;;;;;;5049343;28;20021;-82
2023/07/31 01:34:12;;;;;;;3.55;1.75;;;19.20;89.40;;;;;;5050308;28;20029;-80
2023/07/31 01:36:38;;;;;;;3.05;1.80;;;19.20;88.90;;;;;;5023191;28;20030;-81
2023/07/31 01:39:03;;;;;;;3.45;1.83;;;19.20;88.90;;;;;;5038774;28;20511;-80
2023/07/31 01:41:29;;;;;;;3.17;1.70;;;19.20;88.90;;;;;;5030562;28;20037;-79
2023/07/31 01:43:54;;;;;;;2.53;1.60;;;19.20;88.90;;;;;;5030288;28;20116;-81
2023/07/31 01:46:20;;;;;;;2.65;1.50;;;19.20;88.90;;;;;;5029036;28;20499;-80
2023/07/31 01:48:45;;;;;;;3.00;1.60;;;19.20;88.90;;;;;;5047805;28;20033;-79
2023/07/31 01:51:11;;;;;;;3.47;1.45;;;19.20;88.90;;;;;;5047822;28;20021;-81
2023/07/31 01:53:36;;;;;;;2.47;1.40;;;19.20;88.80;;;;;;5027918;28;20025;-81
2023/07/31 01:56:02;;;;;;;1.92;1.35;;;19.20;88.80;;;;;;5024311;28;20061;-81
2023/07/31 01:58:27;;;;;;;2.65;1.52;;;19.20;88.80;;;;;;5026496;28;20462;-82
2023/07/31 02:00:53;;;;;;;2.65;1.40;;;19.20;88.80;;;;;;5026441;28;20029;-79
2023/07/31 02:03:18;;;;;;;2.50;1.52;;;19.20;88.80;;;;;;5026643;28;20026;-80
2023/07/31 02:05:48;;;;;;;2.97;1.40;;;19.20;88.70;;;;;;5040004;28;20109;-79
2023/07/31 02:08:14;;;;;;;2.63;1.38;;;19.20;88.70;;;;;;5006853;28;20183;-81
2023/07/31 02:10:40;;;;;;;3.33;1.40;;;19.20;88.60;;;;;;5037433;28;20640;-80
2023/07/31 02:13:05;;;;;;;2.42;1.40;;;19.10;88.50;;;;;;5044128;28;20019;-80
2023/07/31 02:15:31;;;;;;;2.53;1.40;;;19.20;88.50;;;;;;5021258;28;20090;-80
2023/07/31 02:17:57;;;;;;;2.95;1.33;;;19.20;88.80;;;;;;5017237;28;20033;-79
2023/07/31 02:20:22;;;;;;;2.40;1.50;;;19.20;88.50;;;;;;5043546;28;20113;-80
2023/07/31 02:22:48;;;;;;;2.95;1.70;;;19.20;88.60;;;;;;5024045;28;20185;-77
2023/07/31 02:25:14;;;;;;;2.28;1.40;;;19.20;88.50;;;;;;5019593;28;20057;-79
2023/07/31 02:27:39;;;;;;;2.28;1.33;;;19.20;88.50;;;;;;5004308;28;20033;-81
2023/07/31 02:30:05;;;;;;;2.50;1.40;;;19.30;88.40;;;;;;5016048;28;20037;-80
2023/07/31 02:32:31;;;;;;;1.80;1.10;;;19.20;88.40;;;;;;5021760;28;20540;-79
2023/07/31 02:34:56;;;;;;;2.13;1.27;;;19.30;88.10;;;;;;5040149;28;20021;-80
2023/07/31 02:37:22;;;;;;;2.35;1.27;;;19.30;88.20;;;;;;5031336;28;20116;-80
2023/07/31 02:39:48;;;;;;;3.22;1.27;;;19.30;88.00;;;;;;5029745;28;20056;-78
2023/07/31 02:42:14;;;;;;;3.63;1.60;;;19.30;88.10;;;;;;5039057;28;20055;-80
2023/07/31 02:44:39;;;;;;;2.42;1.20;;;19.30;88.00;;;;;;5036323;28;20386;-80
2023/07/31 02:47:05;;;;;;;2.30;1.17;;;19.30;88.00;;;;;;5017425;28;20052;-79
2023/07/31 02:49:31;;;;;;;1.70;1.08;;;19.20;88.00;;;;;;5018983;28;20506;-79
2023/07/31 02:51:56;;;;;;;2.58;1.38;;;19.30;87.90;;;;;;5019416;28;20390;-81
2023/07/31 02:54:22;;;;;;;2.30;1.20;;;19.20;87.80;;;;;;5017636;28;20030;-79
2023/07/31 02:56:48;;;;;;;2.63;1.40;;;19.20;88.00;;;;;;5024322;28;20028;-79
2023/07/31 02:59:13;;;;;;;3.22;1.20;;;19.20;88.10;;;;;;5000329;28;20026;-79
2023/07/31 03:01:39;;;;;;;1.63;1.00;;;19.20;88.30;;;;;;5001281;28;20025;-80
2023/07/31 03:04:04;;;;;;;2.08;1.10;;;19.20;88.20;;;;;;5019188;28;20048;-79
2023/07/31 03:06:30;;;;;;;2.88;1.30;;;19.10;88.00;;;;;;5029225;28;20108;-79
2023/07/31 03:08:55;;;;;;;2.25;1.10;;;19.20;88.10;;;;;;5036753;28;20481;-79
2023/07/31 03:11:21;;;;;;;1.38;0.90;;;19.10;88.10;;;;;;5038664;28;20470;-79
2023/07/31 03:13:47;;;;;;;1.75;0.90;;;19.20;88.10;;;;;;5037486;28;20056;-77
2023/07/31 03:16:12;;;;;;;1.50;0.80;;;19.10;88.00;;;;;;5027641;28;20816;-79
2023/07/31 03:18:38;;;;;;;1.67;0.90;;;19.10;88.00;;;;;;5033138;28;20025;-82
2023/07/31 03:21:04;;;;;;;1.77;0.90;;;19.20;88.00;;;;;;5013501;28;20550;-79
2023/07/31 03:23:30;;;;;;;2.47;1.05;;;19.10;87.90;;;;;;5035186;28;20032;-80
2023/07/31 03:26:00;;;;;;;1.98;0.95;;;19.10;87.90;;;;;;5014242;28;20038;-79
2023/07/31 03:28:26;;;;;;;2.40;0.77;;;19.20;88.00;;;;;;5026410;28;20036;-79
2023/07/31 03:30:52;;;;;;;2.05;0.80;;;19.10;87.90;;;;;;5017953;28;20435;-80
2023/07/31 03:33:18;;;;;;;1.55;0.80;;;19.10;87.90;;;;;;5036552;28;20021;-78
2023/07/31 03:35:43;;;;;;;1.63;0.80;;;19.10;87.90;;;;;;5014944;28;20040;-78
2023/07/31 03:38:09;;;;;;;1.98;0.80;;;19.10;87.80;;;;;;5027748;28;20053;-80
2023/07/31 03:40:34;;;;;;;0.63;0.52;;;19.00;87.80;;;;;;5035735;28;20040;-80
2023/07/31 03:43:00;;;;;;;1.98;0.70;;;19.10;87.90;;;;;;5017670;28;20482;-80
2023/07/31 03:45:25;;;;;;;2.10;1.17;;;19.10;87.90;;;;;;5018405;28;20048;-85
2023/07/31 03:47:51;;;;;;;2.40;0.90;;;19.10;87.80;;;;;;5031462;28;20044;-79
2023/07/31 03:50:17;;;;;;;2.65;0.90;;;19.10;87.90;;;;;;5034356;28;20029;-79
2023/07/31 03:52:42;;;;;;;2.95;1.10;;;19.10;87.90;;;;;;5039526;28;20032;-80
2023/07/31 03:55:08;;;;;;;2.25;1.00;;;19.10;87.90;;;;;;5036417;28;20049;-86
2023/07/31 03:57:33;;;;;;;3.10;1.50;;;19.10;87.90;;;;;;5040921;28;20025;-80
2023/07/31 03:59:59;;;;;;;2.33;1.30;;;19.20;88.10;;;;;;5023294;28;20071;-86
2023/07/31 04:02:25;;;;;;;3.35;1.55;;;19.20;88.20;;;;;;5035362;28;20025;-81
2023/07/31 04:04:50;;;;;;;4.50;2.20;;;19.20;88.20;;;;;;5029110;28;20021;-84
2023/07/31 04:07:16;;;;;;;4.68;1.98;;;19.20;88.10;;;;;;5024022;28;20512;-78
2023/07/31 04:09:41;;;;;;;4.13;2.03;;;19.20;88.20;;;;;;5016297;28;20054;-85
2023/07/31 04:12:07;;;;;;;3.20;1.65;;;19.20;88.20;;;;;;5013995;28;20072;-80
2023/07/31 04:14:32;;;;;;;5.78;2.35;;;19.20;88.20;;;;;;5013968;28;20029;-83
2023/07/31 04:16:58;;;;;;;5.90;2.83;;;19.20;88.20;;;;;;5029120;28;20037;-83
2023/07/31 04:19:24;;;;;;;6.93;2.95;;;19.20;88.30;;;;;;5042010;28;20025;-81
2023/07/31 04:21:50;;;;;;;7.15;3.17;;;19.20;88.50;;;;;;5040338;28;20032;-80
2023/07/31 04:24:15;;;;;;;6.38;3.35;;;19.30;88.70;;;;;;5039785;28;20120;-84
2023/07/31 04:26:41;;;;;;;5.78;2.90;;;19.20;88.70;;;;;;5023283;28;20029;-79
2023/07/31 04:29:07;;;;;;;8.00;3.75;;;19.20;88.80;;;;;;5038591;28;20064;-85
2023/07/31 04:31:33;;;;;;;5.97;3.25;;;19.20;88.70;;;;;;5021630;28;20666;-81
2023/07/31 04:33:59;;;;;;;7.00;3.30;;;19.10;89.00;;;;;;5001507;28;20037;-80
2023/07/31 04:36:24;;;;;;;9.35;4.53;;;19.20;89.10;;;;;;5032838;28;20029;-80
2023/07/31 04:38:50;;;;;;;7.97;4.00;;;19.10;89.20;;;;;;5039337;28;20112;-79
2023/07/31 04:41:15;;;;;;;6.80;3.67;;;19.10;89.30;;;;;;5011815;28;20029;-79
2023/07/31 04:43:41;;;;;;;8.23;4.07;;;19.10;89.20;;;;;;5022228;28;20033;-82
2023/07/31 04:46:06;;;;;;;7.97;4.00;;;19.10;89.30;;;;;;5013647;28;20021;-80
2023/07/31 04:48:32;;;;;;;8.68;4.35;;;19.10;89.50;;;;;;5029679;28;20763;-81
2023/07/31 04:50:57;;;;;;;10.55;4.70;;;19.10;89.40;;;;;;5037349;28;20025;-80
2023/07/31 04:53:23;;;;;;;8.93;4.65;;;19.00;89.40;;;;;;5037488;28;20025;-85
2023/07/31 04:55:49;;;;;;;9.02;4.28;;;19.10;89.50;;;;;;5035757;28;20829;-79
2023/07/31 04:58:14;;;;;;;8.13;4.40;;;19.10;89.50;;;;;;5037151;28;20482;-83
2023/07/31 05:00:40;;;;;;;10.43;4.55;;;19.10;89.60;;;;;;5035134;28;20044;-79
2023/07/31 05:03:06;;;;;;;8.77;4.40;;;19.10;89.60;;;;;;5036565;28;20099;-83
2023/07/31 05:05:32;;;;;;;9.43;4.38;;;19.10;89.60;;;;;;5031537;28;20029;-80
2023/07/31 05:07:57;;;;;;;9.05;4.60;;;19.10;89.70;;;;;;5027522;28;20033;-80
2023/07/31 05:10:23;;;;;;;9.63;4.68;;;19.10;89.70;;;;;;5039434;28;20534;-81
2023/07/31 05:12:48;;;;;;;10.05;4.88;;;19.10;89.70;;;;;;5021223;28;20033;-82
2023/07/31 05:15:14;;;;;;;10.73;4.93;;;19.10;89.80;;;;;;5020559;28;20067;-79
2023/07/31 05:17:39;;;;;;;8.70;5.00;;;19.10;90.00;;;;;;5033360;28;20042;-81
2023/07/31 05:20:06;;;;;;;10.20;4.90;;;19.10;89.70;;;;;;5034597;28;20075;-84
2023/07/31 05:22:31;;;;;;;10.15;5.03;;;19.10;89.90;;;;;;5036316;28;20037;-78
2023/07/31 05:24:57;;;;;;;9.63;5.15;;;19.10;89.90;;;;;;5031940;28;20108;-78
2023/07/31 05:27:22;;;;;;;10.23;5.65;;;19.00;90.00;;;;;;5031611;28;20211;-80
2023/07/31 05:29:48;;;;;;;12.68;5.13;;;19.10;89.90;;;;;;5038876;28;20037;-80
2023/07/31 05:32:13;;;;;;;10.88;4.75;;;19.10;89.80;;;;;;5037273;28;20026;-82
2023/07/31 05:34:39;;;;;;;9.07;5.13;;;19.10;89.70;;;;;;5021544;28;20048;-79
2023/07/31 05:37:05;;;;;;;9.52;4.75;;;19.20;89.70;;;;;;5022606;28;20101;-80
2023/07/31 05:39:31;;;;;;;10.32;5.10;;;19.20;89.70;;;;;;5042047;28;20028;-79
2023/07/31 05:41:56;;;;;;;9.88;4.65;;;19.20;89.60;;;;;;5038713;28;20113;-79
2023/07/31 05:44:22;;;;;;;11.77;5.18;;;19.20;89.50;;;;;;5041106;28;20026;-79
2023/07/31 05:46:47;;;;;;;11.23;5.22;;;19.20;89.40;;;;;;5028951;28;20029;-78
2023/07/31 05:49:13;;;;;;;11.30;4.65;;;19.20;89.40;;;;;;5024279;28;20045;-79
2023/07/31 05:51:38;;;;;;;10.95;5.07;;;19.20;89.80;;;;;;5033669;28;20080;-78
2023/07/31 05:54:04;;;;;;;10.88;5.10;;;19.20;89.30;;;;;;5031669;28;20080;-79
2023/07/31 05:56:30;;;;;;;11.13;5.03;;;19.20;89.20;;;;;;5039026;28;20036;-79
2023/07/31 05:58:56;;;;;;;9.50;4.78;;;19.20;89.20;;;;;;5021083;28;20040;-77
2023/07/31 06:01:22;;;;;;;10.43;4.90;;;19.20;89.30;;;;;;5019700;28;20496;-79
2023/07/31 06:03:48;;;;;;;11.65;5.03;;;19.20;89.70;;;;;;5038814;28;20014;-79
2023/07/31 06:06:13;;;;;;;8.60;4.57;;;19.20;89.20;;;;;;5021766;28;20025;-79
2023/07/31 06:08:39;;;;;;;10.65;4.63;;;19.20;89.20;;;;;;5039765;28;20081;-79
2023/07/31 06:11:06;;;;;;;10.73;4.28;;;19.20;89.50;;;;;;5023610;28;20025;-78
2023/07/31 06:13:31;;;;;;;8.98;5.00;;;19.10;89.30;;;;;;5023042;28;20112;-79
2023/07/31 06:15:57;;;;;;;10.95;4.43;;;19.20;89.30;;;;;;5020074;28;20071;-79
2023/07/31 06:18:22;;;;;;;9.73;4.68;;;19.10;89.30;;;;;;5040872;28;20033;-79
2023/07/31 06:20:53;;;;;;;10.43;4.70;;;19.10;89.30;;;;;;5040498;28;20025;-78
2023/07/31 06:23:19;;;;;;;8.73;4.60;;;19.10;89.30;;;;;;5022339;28;20049;-79
2023/07/31 06:25:44;;;;;;;8.30;4.45;;;19.10;89.30;;;;;;5029319;28;20041;-79
2023/07/31 06:28:10;;;;;;;9.35;4.38;;;19.10;89.30;;;;;;5002644;28;20030;-79
2023/07/31 06:30:35;;;;;;;9.63;4.45;;;19.10;89.30;;;;;;5031628;28;20120;-79
2023/07/31 06:33:00;;;;;;;9.20;4.47;;;19.10;89.30;;;;;;5038398;28;20112;-78
2023/07/31 06:35:26;;;;;;;8.38;4.10;;;19.10;89.30;;;;;;5032140;28;20021;-79
2023/07/31 06:37:51;;;;;;;8.82;3.97;;;19.10;89.30;;;;;;5039940;28;20025;-79
2023/07/31 06:40:17;;;;;;;7.70;4.13;;;19.10;89.40;;;;;;5038173;28;20025;-79
2023/07/31 06:42:43;;;;;;;8.50;4.28;;;19.10;89.30;;;;;;5037535;28;20029;-78
2023/07/31 06:45:08;;;;;;;9.63;4.55;;;19.10;89.30;;;;;;5038278;28;20402;-79
2023/07/31 06:47:34;;;;;;;8.43;4.15;;;19.10;89.30;;;;;;5038870;28;20490;-78
2023/07/31 06:50:00;;;;;;;8.70;4.38;;;19.10;89.30;;;;;;5028735;28;20030;-79
2023/07/31 06:52:25;;;;;;;7.30;3.97;;;19.10;89.30;;;;;;5038848;28;20049;-79
2023/07/31 06:55:23;;;;;;;8.90;4.38;;;19.10;89.30;;;;;;5034248;28;20057;-78
2023/07/31 06:57:50;;;;;;;8.88;4.05;;;19.10;89.30;;;;;;4974197;28;20034;-79
2023/07/31 07:00:17;;;;;;;7.47;4.40;;;19.10;89.30;;;;;;5000934;28;20556;-78
2023/07/31 07:02:42;;;;;;;7.93;4.15;;;19.10;89.20;;;;;;4999732;28;20054;-79
2023/07/31 07:05:08;;;;;;;9.30;4.70;;;19.10;89.20;;;;;;5023468;28;20029;-79
2023/07/31 07:07:34;;;;;;;8.55;4.30;;;19.10;89.20;;;;;;5027226;28;20037;-78
2023/07/31 07:10:00;;;;;;;8.13;4.30;;;19.10;89.20;;;;;;5037830;28;20117;-79
2023/07/31 07:12:26;;;;;;;10.20;4.35;;;19.20;89.30;;;;;;5038116;28;20112;-79
2023/07/31 07:14:52;;;;;;;8.65;4.30;;;19.20;89.10;;;;;;5018798;28;20466;-78
2023/07/31 07:17:18;;;;;;;7.45;4.15;;;19.20;89.00;;;;;;5031535;28;20022;-78
2023/07/31 07:19:45;;;;;;;8.80;4.25;;;19.20;88.80;;;;;;5018482;28;20084;-79
2023/07/31 07:22:11;;;;;;;8.13;4.10;;;19.20;89.10;;;;;;5036740;28;20036;-79
2023/07/31 07:24:37;;;;;;;8.55;3.88;;;19.20;89.00;;;;;;5018557;28;20112;-79
2023/07/31 07:27:03;;;;;;;7.53;4.10;;;19.20;88.70;;;;;;5036657;28;20504;-79
2023/07/31 07:29:28;;;;;;;9.45;4.45;;;19.20;88.70;;;;;;5035248;28;20025;-79
2023/07/31 07:31:54;;;;;;;9.05;3.95;;;19.20;88.60;;;;;;5035196;28;20573;-79
2023/07/31 07:34:22;;;;;;;7.07;3.78;;;19.30;88.60;;;;;;5034740;28;20021;-78
2023/07/31 07:36:47;;;;;;;5.93;3.40;;;19.20;88.50;;;;;;5015088;28;20022;-79
2023/07/31 07:39:13;;;;;;;7.72;3.90;;;19.30;88.60;;;;;;5030685;28;20033;-79
2023/07/31 07:41:38;;;;;;;7.63;4.07;;;19.20;88.60;;;;;;5036736;28;20029;-79
2023/07/31 07:44:04;;;;;;;7.53;4.20;;;19.20;88.70;;;;;;5034101;28;20032;-78
2023/07/31 07:46:29;;;;;;;8.70;4.18;;;19.20;88.80;;;;;;5035480;28;20067;-79
2023/07/31 07:48:55;;;;;;;7.82;4.10;;;19.20;88.90;;;;;;5035498;28;20104;-79
2023/07/31 07:51:20;;;;;;;7.28;4.05;;;19.20;89.00;;;;;;5035658;28;20029;-79
2023/07/31 07:53:46;;;;;;;7.00;3.78;;;19.20;89.10;;;;;;5030838;28;20033;-81
2023/07/31 07:56:11;;;;;;;7.53;3.80;;;19.20;89.20;;;;;;5042289;28;20032;-81
2023/07/31 07:58:37;;;;;;;8.60;4.22;;;19.10;89.20;;;;;;5043388;28;20474;-80
2023/07/31 08:01:02;;;;;;;7.72;4.13;;;19.10;89.30;;;;;;5047495;28;20025;-79
2023/07/31 08:03:28;;;;;;;10.45;3.90;;;19.10;89.30;;;;;;5048271;28;20151;-80
2023/07/31 08:06:00;;;;;;;7.03;3.70;;;19.10;89.30;;;;;;5039164;28;20040;-81
2023/07/31 08:08:27;;;;;;;7.60;4.00;;;19.10;89.30;;;;;;5030668;28;20501;-79
2023/07/31 08:10:52;;;;;;;7.28;4.00;;;19.10;89.40;;;;;;5047883;28;20025;-79
2023/07/31 08:13:18;;;;;;;8.90;4.07;;;19.10;89.40;;;;;;5028682;28;20032;-80
2023/07/31 08:15:43;;;;;;;8.02;3.83;;;19.20;89.50;;;;;;5030038;28;20032;-81
2023/07/31 08:18:09;;;;;;;6.65;3.88;;;19.10;89.40;;;;;;5049138;28;20041;-80
2023/07/31 08:20:35;;;;;;;7.53;4.00;;;19.10;89.50;;;;;;5049618;28;20041;-80
2023/07/31 08:23:00;;;;;;;8.15;3.97;;;19.10;89.40;;;;;;5030104;28;20013;-76
2023/07/31 08:25:26;;;;;;;7.88;4.32;;;19.10;89.40;;;;;;5031188;28;20040;-80
2023/07/31 08:27:52;;;;;;;6.53;3.63;;;19.20;89.50;;;;;;5038173;28;20029;-80
2023/07/31 08:30:18;;;;;;;7.63;3.55;;;19.10;89.30;;;;;;5047952;28;20075;-79
2023/07/31 08:32:44;;;;;;;7.35;3.92;;;19.10;89.30;;;;;;5028707;28;20022;-79
2023/07/31 08:35:10;;;;;;;6.45;3.55;;;19.10;89.80;;;;;;5027877;28;20040;-80
2023/07/31 08:37:35;;;;;;;7.97;3.70;;;19.10;89.40;;;;;;5033388;28;20014;-79
2023/07/31 08:40:01;;;;;;;7.10;3.65;;;19.20;89.40;;;;;;5028774;28;20493;-80
2023/07/31 08:42:26;;;;;;;8.05;3.97;;;19.20;89.40;;;;;;5028248;28;20486;-79
2023/07/31 08:44:53;;;;;;;8.20;3.90;;;19.20;89.30;;;;;;5026565;28;20033;-79
2023/07/31 08:47:20;;;;;;;6.93;3.75;;;19.20;89.20;;;;;;5035207;28;20051;-79
2023/07/31 08:49:46;;;;;;;6.50;3.45;;;19.20;89.20;;;;;;5041568;28;20056;-79
2023/07/31 08:52:13;;;;;;;6.55;3.30;;;19.20;89.20;;;;;;5044612;28;20137;-80
2023/07/31 08:54:39;;;;;;;7.68;3.67;;;19.20;89.10;;;;;;5040357;28;20508;-80
2023/07/31 08:57:06;;;;;;;7.53;3.80;;;19.20;89.00;;;;;;5024941;28;20029;-79
2023/07/31 08:59:34;;;;;;;5.90;3.40;;;19.20;88.90;;;;;;5005997;28;20048;-79
2023/07/31 09:02:05;;;;;;;6.53;3.25;;;19.30;88.90;;;;;;5024167;28;20025;-79
2023/07/31 09:04:31;;;;;;;6.60;3.42;;;19.30;88.90;;;;;;5022394;28;20108;-79
2023/07/31 09:07:00;;;;;;;6.60;3.22;;;19.30;88.90;;;;;;5008667;28;20486;-79
2023/07/31 09:09:26;;;;;;;6.25;3.40;;;19.30;88.90;;;;;;5031873;28;20032;-79
2023/07/31 09:11:52;;;;;;;6.13;3.38;;;19.30;88.90;;;;;;5041325;28;20406;-79
2023/07/31 09:14:19;;;;;;;6.80;3.65;;;19.30;88.90;;;;;;5023295;28;20022;-79
2023/07/31 09:16:54;;;;;;;6.03;3.00;;;19.30;89.00;;;;;;5037956;28;20402;-80
2023/07/31 09:19:34;;;;;;;7.50;3.72;;;19.30;89.10;;;;;;5025027;28;20025;-79
2023/07/31 09:22:00;;;;;;;6.15;3.30;;;19.30;89.30;;;;;;5040779;28;20029;-80
2023/07/31 09:24:30;;;;;;;6.50;3.22;;;19.20;89.40;;;;;;5037237;28;20105;-79
2023/07/31 09:26:56;;;;;;;5.90;3.00;;;19.20;89.40;;;;;;5038835;28;20419;-78
2023/07/31 09:29:22;;;;;;;6.82;3.40;;;19.20;89.50;;;;;;5038285;28;20057;-80
2023/07/31 09:31:48;;;;;;;5.57;3.10;;;19.20;89.50;;;;;;5038793;28;20086;-79
2023/07/31 09:34:14;;;;;;;5.93;3.50;;;19.20;89.60;;;;;;5037510;28;20434;-78
2023/07/31 09:36:47;;;;;;;5.75;3.03;;;19.20;89.50;;;;;;5008411;28;20029;-79
2023/07/31 09:39:15;;;;;;;5.82;3.13;;;19.20;89.60;;;;;;5039550;28;20057;-80
2023/07/31 09:41:52;;;;;;;6.00;3.40;;;19.20;89.50;;;;;;5020696;28;20032;-80
2023/07/31 09:44:18;;;;;;;5.57;2.90;;;19.20;89.80;;;;;;5022838;28;20521;-79
2023/07/31 09:46:44;;;;;;;6.00;3.30;;;19.20;89.70;;;;;;5019910;28;20021;-80
2023/07/31 09:49:11;;;;;;;5.70;3.20;;;19.20;89.80;;;;;;5038369;28;20022;-77
2023/07/31 09:51:38;;;;;;;6.55;3.30;;;19.20;89.80;;;;;;5042464;28;20025;-78
2023/07/31 09:54:13;;;;;;;5.43;2.83;;;19.20;89.90;;;;;;5022945;28;20025;-79
2023/07/31 09:56:48;;;;;;;6.93;3.65;;;19.20;89.80;;;;;;5041597;28;20075;-79
2023/07/31 09:59:16;;;;;;;5.95;3.38;;;19.20;89.90;;;;;;5042007;28;20013;-79
2023/07/31 10:01:42;;;;;;;5.50;3.00;;;19.20;89.90;;;;;;5023295;28;20026;-79
2023/07/31 10:04:09;;;;;;;5.90;3.10;;;19.20;90.00;;;;;;5022643;28;20030;-78
2023/07/31 10:06:36;;;;;;;5.07;2.92;;;19.20;89.90;;;;;;5037857;28;20100;-79
2023/07/31 10:09:05;;;;;;;6.43;3.17;;;19.20;90.00;;;;;;5040261;28;20028;-79
2023/07/31 10:11:33;;;;;;;4.97;2.92;;;19.10;90.00;;;;;;5021782;28;20056;-79
2023/07/31 10:13:59;;;;;;;5.05;2.83;;;19.20;89.90;;;;;;5039992;28;20478;-79
2023/07/31 10:16:25;;;;;;;5.22;2.90;;;19.20;90.00;;;;;;5005021;28;20033;-79
2023/07/31 10:18:51;;;;;;;5.47;2.95;;;19.20;89.90;;;;;;5002020;28;20033;-79
2023/07/31 10:21:17;;;;;;;5.82;3.00;;;19.20;90.00;;;;;;5020682;28;20033;-79
2023/07/31 10:23:44;;;;;;;5.53;2.97;;;19.20;90.00;;;;;;5020090;28;20164;-80
2023/07/31 10:26:11;;;;;;;6.03;3.15;;;19.20;89.90;;;;;;5015551;28;20030;-77
2023/07/31 10:28:37;;;;;;;5.25;2.67;;;19.20;89.70;;;;;;5020954;28;20026;-79
2023/07/31 10:31:05;;;;;;;4.38;2.67;;;19.20;89.70;;;;;;5020678;28;20030;-79
2023/07/31 10:33:30;;;;;;;5.35;3.10;;;19.30;89.60;;;;;;5038190;28;20048;-79
2023/07/31 10:36:19;;;;;;;5.35;2.88;;;19.30;89.50;;;;;;5019722;28;20029;-79
2023/07/31 10:38:45;;;;;;;6.20;2.80;;;19.30;89.40;;;;;;5026951;28;20500;-79
2023/07/31 10:41:11;;;;;;;4.88;2.83;;;19.30;89.40;;;;;;5038825;28;20478;-79
2023/07/31 10:43:37;;;;;;;5.25;2.60;;;19.30;89.40;;;;;;5036613;28;20079;-79
2023/07/31 10:46:13;;;;;;;4.63;2.58;;;19.30;89.40;;;;;;5029861;28;20030;-79
2023/07/31 10:48:41;;;;;;;5.45;2.72;;;19.30;89.40;;;;;;5018162;28;20105;-79
2023/07/31 10:51:12;;;;;;;5.00;2.65;;;19.30;89.40;;;;;;4999806;28;20533;-80
2023/07/31 10:53:39;;;;;;;5.30;2.73;;;19.30;89.60;;;;;;4999344;28;20026;-79
2023/07/31 10:56:07;;;;;;;4.25;2.65;;;19.30;89.70;;;;;;5031035;28;20308;-79
2023/07/31 10:58:33;;;;;;;4.47;2.47;;;19.20;89.80;;;;;;5038169;28;20028;-79
2023/07/31 11:01:02;;;;;;;5.30;2.60;;;19.20;89.80;;;;;;5038114;28;20057;-79
2023/07/31 11:03:49;;;;;;;4.97;2.70;;;19.20;89.80;;;;;;5037301;28;20018;-79
2023/07/31 11:06:18;;;;;;;4.20;2.40;;;19.20;89.90;;;;;;5022092;28;20401;-79
2023/07/31 11:08:46;;;;;;;4.18;2.40;;;19.20;90.00;;;;;;5025655;28;20041;-79
2023/07/31 11:11:14;;;;;;;4.63;2.40;;;19.20;90.00;;;;;;5018791;28;20036;-78
2023/07/31 11:13:43;;;;;;;4.90;2.63;;;19.20;89.90;;;;;;5036684;28;20030;-79
2023/07/31 11:16:09;;;;;;;4.90;2.38;;;19.20;90.00;;;;;;5003944;28;20482;-80
2023/07/31 11:18:36;;;;;;;4.22;2.28;;;19.20;90.00;;;;;;5034057;28;20037;-79
2023/07/31 11:21:02;;;;;;;4.22;2.47;;;19.20;90.00;;;;;;5036553;28;20021;-79
2023/07/31 11:23:27;;;;;;;4.25;2.40;;;19.20;90.00;;;;;;5037104;28;20095;-79
2023/07/31 11:25:58;;;;;;;3.65;2.10;;;19.20;90.00;;;;;;5018104;28;20025;-80
2023/07/31 11:28:24;;;;;;;4.10;2.22;;;19.20;90.10;;;;;;5025228;28;20032;-81
2023/07/31 11:30:50;;;;;;;4.57;2.53;;;19.20;90.00;;;;;;5050541;28;20040;-80
2023/07/31 11:33:15;;;;;;;3.92;2.10;;;19.20;90.10;;;;;;5031472;28;20018;-81
2023/07/31 11:35:44;;;;;;;4.05;2.30;;;19.20;90.10;;;;;;5044949;28;20030;-81
2023/07/31 11:38:30;;;;;;;5.22;2.35;;;19.20;90.10;;;;;;5049757;28;20422;-81
2023/07/31 11:40:58;;;;;;;3.88;2.20;;;19.20;90.00;;;;;;5049136;28;20433;-87
2023/07/31 11:43:24;;;;;;;3.92;2.15;;;19.20;90.10;;;;;;5047853;28;20037;-83
2023/07/31 11:45:58;;;;;;;4.45;2.20;;;19.20;90.10;;;;;;5041201;28;20048;-80
2023/07/31 11:48:33;;;;;;;4.18;2.22;;;19.20;90.10;;;;;;5009836;28;20041;-80
2023/07/31 11:51:03;;;;;;;4.70;2.30;;;19.20;90.10;;;;;;5046744;28;20026;-82
2023/07/31 11:53:44;;;;;;;4.18;2.40;;;19.10;90.00;;;;;;5047806;28;20026;-84
2023/07/31 11:56:11;;;;;;;;;;;19.20;90.10;;;;;;5047439;28;20025;-81
2023/07/31 11:58:38;;;;;;;4.22;2.15;;;19.20;90.10;;;;;;5042333;28;19916;-83
2023/07/31 12:01:05;;;;;;;4.22;2.30;;;19.20;90.10;;;;;;5049148;28;20093;-81
2023/07/31 12:03:31;;;;;;;4.30;2.28;;;19.20;90.10;;;;;;5047626;28;20490;-80
2023/07/31 12:05:58;;;;;;;4.65;2.13;;;19.30;90.00;;;;;;5036151;28;20092;-79
2023/07/31 12:08:24;;;;;;;3.63;2.00;;;19.30;90.00;;;;;;5019330;28;20093;-81
2023/07/31 12:10:51;;;;;;;4.88;2.20;;;19.30;90.00;;;;;;5044176;28;20402;-80
2023/07/31 12:13:24;;;;;;;3.65;2.00;;;19.30;89.90;;;;;;5046909;28;20045;-82
2023/07/31 12:15:55;;;;;;;4.40;2.03;;;19.30;89.80;;;;;;5025564;28;20022;-81
2023/07/31 12:18:20;;;;;;;3.03;1.80;;;19.30;89.80;;;;;;5041399;28;20025;-81
2023/07/31 12:20:57;;;;;;;3.60;2.00;;;19.30;89.90;;;;;;5044792;28;20067;-79
2023/07/31 12:23:31;;;;;;;3.45;1.90;;;19.30;89.80;;;;;;5045040;28;20025;-79
2023/07/31 12:26:03;;;;;;;4.38;2.05;;;19.30;89.90;;;;;;5027085;28;20037;-79
2023/07/31 12:28:30;;;;;;;2.63;1.65;;;19.30;89.90;;;;;;5026308;28;20402;-79
2023/07/31 12:31:00;;;;;;;3.05;1.83;;;19.30;90.00;;;;;;5026975;28;20033;-81
2023/07/31 12:33:32;;;;;;;3.50;1.90;;;19.30;90.00;;;;;;5025408;28;20024;-81
2023/07/31 12:35:58;;;;;;;3.72;1.90;;;19.30;90.00;;;;;;5016971;28;20025;-81
2023/07/31 12:38:23;;;;;;;3.65;1.77;;;19.30;90.10;;;;;;5029367;28;20040;-79
2023/07/31 12:40:49;;;;;;;3.00;1.65;;;19.20;90.10;;;;;;5041296;28;20037;-80
2023/07/31 12:43:15;;;;;;;3.08;1.70;;;19.20;90.20;;;;;;5041488;28;20030;-81
2023/07/31 12:45:41;;;;;;;3.05;1.80;;;19.20;90.20;;;;;;5033704;28;20025;-79